sensor_id;sensor_type;location;lat;lon;timestamp;noise_LAeq;noise_LA_min;noise_LA_max;noise_LA01;noise_LA95
37279;Laerm;7458;49.002;8.472;2024-01-10T00:01:55;62.81;38.37;73.30;;
37279;Laerm;7458;49.002;8.472;2024-01-10T00:04:21;62.90;38.95;73.00;;
37279;Laerm;7458;49.002;8.472;2024-01-10T00:06:48;62.86;38.52;73.24;;
37279;Laerm;7458;49.002;8.472;2024-01-10T00:09:13;62.88;38.67;73.31;;
37279;Laerm;7458;49.002;8.472;2024-01-10T00:11:39;62.83;37.70;73.41;;
37279;Laerm;7458;49.002;8.472;2024-01-10T00:14:06;62.89;37.32;73.30;;
37279;Laerm;7458;49.002;8.472;2024-01-10T00:16:32;62.98;38.05;73.22;;
37279;Laerm;7458;49.002;8.472;2024-01-10T00:18:58;62.93;40.62;73.39;;
37279;Laerm;7458;49.002;8.472;2024-01-10T00:21:24;62.90;37.32;73.14;;
37279;Laerm;7458;49.002;8.472;2024-01-10T00:23:50;62.88;35.66;73.38;;
37279;Laerm;7458;49.002;8.472;2024-01-10T00:26:16;62.92;37.32;73.14;;
37279;Laerm;7458;49.002;8.472;2024-01-10T00:28:42;62.83;37.52;73.30;;
37279;Laerm;7458;49.002;8.472;2024-01-10T00:31:12;62.82;38.95;73.20;;
37279;Laerm;7458;49.002;8.472;2024-01-10T00:33:39;62.80;35.66;73.29;;
37279;Laerm;7458;49.002;8.472;2024-01-10T00:36:05;62.93;36.69;73.39;;
37279;Laerm;7458;49.002;8.472;2024-01-10T00:38:32;62.87;36.45;73.42;;
37279;Laerm;7458;49.002;8.472;2024-01-10T00:40:58;62.86;37.52;73.49;;
37279;Laerm;7458;49.002;8.472;2024-01-10T00:43:24;62.90;36.20;73.55;;
37279;Laerm;7458;49.002;8.472;2024-01-10T00:45:51;62.83;36.69;73.18;;
37279;Laerm;7458;49.002;8.472;2024-01-10T00:48:17;62.86;37.12;73.37;;
37279;Laerm;7458;49.002;8.472;2024-01-10T00:50:46;62.82;35.94;73.67;;
37279;Laerm;7458;49.002;8.472;2024-01-10T00:53:12;63.04;39.34;77.33;;
37279;Laerm;7458;49.002;8.472;2024-01-10T00:55:39;62.79;36.45;73.20;;
37279;Laerm;7458;49.002;8.472;2024-01-10T00:58:05;62.96;35.36;73.31;;
37279;Laerm;7458;49.002;8.472;2024-01-10T01:00:32;62.88;36.69;73.61;;
37279;Laerm;7458;49.002;8.472;2024-01-10T01:02:58;62.94;36.69;73.17;;
37279;Laerm;7458;49.002;8.472;2024-01-10T01:05:24;62.95;37.88;73.43;;
37279;Laerm;7458;49.002;8.472;2024-01-10T01:07:50;62.87;36.91;73.18;;
37279;Laerm;7458;49.002;8.472;2024-01-10T01:10:16;62.89;36.45;73.41;;
37279;Laerm;7458;49.002;8.472;2024-01-10T01:12:43;62.89;36.45;73.17;;
37279;Laerm;7458;49.002;8.472;2024-01-10T01:15:09;62.91;38.81;73.27;;
37279;Laerm;7458;49.002;8.472;2024-01-10T01:17:36;62.99;37.12;73.17;;
37279;Laerm;7458;49.002;8.472;2024-01-10T01:20:02;62.83;36.45;73.48;;
37279;Laerm;7458;49.002;8.472;2024-01-10T01:22:30;62.81;36.69;73.42;;
37279;Laerm;7458;49.002;8.472;2024-01-10T01:24:57;62.97;36.91;73.27;;
37279;Laerm;7458;49.002;8.472;2024-01-10T01:27:23;62.93;40.13;73.39;;
37279;Laerm;7458;49.002;8.472;2024-01-10T01:29:49;62.89;34.69;73.33;;
37279;Laerm;7458;49.002;8.472;2024-01-10T01:32:16;62.93;36.45;73.31;;
37279;Laerm;7458;49.002;8.472;2024-01-10T01:34:42;62.94;36.69;72.99;;
37279;Laerm;7458;49.002;8.472;2024-01-10T01:37:08;64.27;36.91;81.21;;
37279;Laerm;7458;49.002;8.472;2024-01-10T01:39:34;62.99;37.88;73.38;;
37279;Laerm;7458;49.002;8.472;2024-01-10T01:42:00;62.86;35.66;73.55;;
37279;Laerm;7458;49.002;8.472;2024-01-10T01:44:26;62.92;36.20;73.55;;
37279;Laerm;7458;49.002;8.472;2024-01-10T01:46:52;62.94;35.66;73.24;;
37279;Laerm;7458;49.002;8.472;2024-01-10T01:49:18;62.98;37.88;73.22;;
37279;Laerm;7458;49.002;8.472;2024-01-10T01:51:46;62.90;37.52;73.17;;
37279;Laerm;7458;49.002;8.472;2024-01-10T01:54:12;62.94;37.12;73.48;;
37279;Laerm;7458;49.002;8.472;2024-01-10T01:56:40;62.87;36.69;73.30;;
37279;Laerm;7458;49.002;8.472;2024-01-10T01:59:08;62.87;35.94;73.12;;
37279;Laerm;7458;49.002;8.472;2024-01-10T02:01:35;62.93;39.92;73.38;;
37279;Laerm;7458;49.002;8.472;2024-01-10T02:04:04;62.86;35.36;73.58;;
37279;Laerm;7458;49.002;8.472;2024-01-10T02:06:30;62.88;35.66;73.51;;
37279;Laerm;7458;49.002;8.472;2024-01-10T02:08:57;62.85;36.91;73.54;;
37279;Laerm;7458;49.002;8.472;2024-01-10T02:11:24;62.85;36.69;73.30;;
37279;Laerm;7458;49.002;8.472;2024-01-10T02:13:50;62.89;37.52;73.51;;
37279;Laerm;7458;49.002;8.472;2024-01-10T02:16:17;62.75;36.45;73.28;;
37279;Laerm;7458;49.002;8.472;2024-01-10T02:18:44;62.84;35.36;73.29;;
37279;Laerm;7458;49.002;8.472;2024-01-10T02:21:10;62.85;34.31;73.03;;
37279;Laerm;7458;49.002;8.472;2024-01-10T02:23:36;62.78;39.34;73.55;;
37279;Laerm;7458;49.002;8.472;2024-01-10T02:26:02;62.90;35.94;73.46;;
37279;Laerm;7458;49.002;8.472;2024-01-10T02:28:28;62.81;36.20;73.41;;
37279;Laerm;7458;49.002;8.472;2024-01-10T02:30:55;62.75;35.94;73.41;;
37279;Laerm;7458;49.002;8.472;2024-01-10T02:33:22;62.85;35.66;73.25;;
37279;Laerm;7458;49.002;8.472;2024-01-10T02:35:48;62.79;38.05;73.36;;
37279;Laerm;7458;49.002;8.472;2024-01-10T02:38:14;62.85;36.20;73.49;;
37279;Laerm;7458;49.002;8.472;2024-01-10T02:40:40;62.83;35.94;73.22;;
37279;Laerm;7458;49.002;8.472;2024-01-10T02:43:06;62.82;35.66;73.89;;
37279;Laerm;7458;49.002;8.472;2024-01-10T02:45:33;62.81;37.35;73.30;;
37279;Laerm;7458;49.002;8.472;2024-01-10T02:48:01;62.79;35.94;73.32;;
37279;Laerm;7458;49.002;8.472;2024-01-10T02:50:27;62.72;34.69;73.52;;
37279;Laerm;7458;49.002;8.472;2024-01-10T02:52:54;62.77;35.66;73.38;;
37279;Laerm;7458;49.002;8.472;2024-01-10T02:55:20;62.79;36.69;73.53;;
37279;Laerm;7458;49.002;8.472;2024-01-10T02:57:46;62.88;39.35;73.65;;
37279;Laerm;7458;49.002;8.472;2024-01-10T03:00:12;63.20;36.34;75.75;;
37279;Laerm;7458;49.002;8.472;2024-01-10T03:02:39;62.90;37.12;73.29;;
37279;Laerm;7458;49.002;8.472;2024-01-10T03:05:05;62.80;35.04;73.31;;
37279;Laerm;7458;49.002;8.472;2024-01-10T03:07:31;62.84;36.69;73.47;;
37279;Laerm;7458;49.002;8.472;2024-01-10T03:09:57;62.85;36.91;73.39;;
37279;Laerm;7458;49.002;8.472;2024-01-10T03:12:23;62.87;36.20;73.26;;
37279;Laerm;7458;49.002;8.472;2024-01-10T03:14:50;62.83;34.69;73.35;;
37279;Laerm;7458;49.002;8.472;2024-01-10T03:17:16;62.83;34.69;73.33;;
37279;Laerm;7458;49.002;8.472;2024-01-10T03:19:42;62.88;39.11;73.57;;
37279;Laerm;7458;49.002;8.472;2024-01-10T03:22:10;62.78;35.59;73.20;;
37279;Laerm;7458;49.002;8.472;2024-01-10T03:24:39;62.77;35.66;73.24;;
37279;Laerm;7458;49.002;8.472;2024-01-10T03:27:05;62.88;36.77;73.53;;
37279;Laerm;7458;49.002;8.472;2024-01-10T03:29:31;62.92;35.36;73.70;;
37279;Laerm;7458;49.002;8.472;2024-01-10T03:31:57;62.80;38.37;73.66;;
37279;Laerm;7458;49.002;8.472;2024-01-10T03:34:24;62.90;35.66;73.96;;
37279;Laerm;7458;49.002;8.472;2024-01-10T03:36:50;62.96;37.12;73.51;;
37279;Laerm;7458;49.002;8.472;2024-01-10T03:39:16;62.85;36.69;73.56;;
37279;Laerm;7458;49.002;8.472;2024-01-10T03:41:42;62.87;39.58;73.35;;
37279;Laerm;7458;49.002;8.472;2024-01-10T03:44:08;62.87;35.36;73.43;;
37279;Laerm;7458;49.002;8.472;2024-01-10T03:46:34;62.85;35.66;73.49;;
37279;Laerm;7458;49.002;8.472;2024-01-10T03:49:02;62.86;35.36;73.52;;
37279;Laerm;7458;49.002;8.472;2024-01-10T03:51:28;62.83;36.91;73.60;;
37279;Laerm;7458;49.002;8.472;2024-01-10T03:53:55;62.85;37.53;73.54;;
37279;Laerm;7458;49.002;8.472;2024-01-10T03:56:21;62.85;35.66;73.77;;
37279;Laerm;7458;49.002;8.472;2024-01-10T03:58:47;62.82;35.66;73.55;;
37279;Laerm;7458;49.002;8.472;2024-01-10T04:01:16;62.73;36.91;73.50;;
37279;Laerm;7458;49.002;8.472;2024-01-10T04:03:43;62.88;39.70;73.63;;
37279;Laerm;7458;49.002;8.472;2024-01-10T04:06:10;62.79;39.21;73.44;;
37279;Laerm;7458;49.002;8.472;2024-01-10T04:08:36;62.79;36.69;73.49;;
37279;Laerm;7458;49.002;8.472;2024-01-10T04:11:02;62.88;36.69;73.48;;
37279;Laerm;7458;49.002;8.472;2024-01-10T04:13:29;62.83;40.03;73.49;;
37279;Laerm;7458;49.002;8.472;2024-01-10T04:15:55;62.84;37.32;73.39;;
37279;Laerm;7458;49.002;8.472;2024-01-10T04:18:21;62.83;36.56;73.21;;
37279;Laerm;7458;49.002;8.472;2024-01-10T04:20:51;62.98;37.88;79.70;;
37279;Laerm;7458;49.002;8.472;2024-01-10T04:23:17;62.86;39.92;73.38;;
37279;Laerm;7458;49.002;8.472;2024-01-10T04:25:43;62.92;37.52;73.33;;
37279;Laerm;7458;49.002;8.472;2024-01-10T04:28:09;62.93;38.21;73.70;;
37279;Laerm;7458;49.002;8.472;2024-01-10T04:30:36;62.96;39.92;73.20;;
37279;Laerm;7458;49.002;8.472;2024-01-10T04:33:02;62.85;37.70;73.46;;
37279;Laerm;7458;49.002;8.472;2024-01-10T04:35:28;62.97;38.21;73.22;;
37279;Laerm;7458;49.002;8.472;2024-01-10T04:37:54;62.87;38.21;73.46;;
37279;Laerm;7458;49.002;8.472;2024-01-10T04:40:20;62.98;40.23;73.43;;
37279;Laerm;7458;49.002;8.472;2024-01-10T04:42:46;62.82;38.52;73.49;;
37279;Laerm;7458;49.002;8.472;2024-01-10T04:45:13;62.90;37.12;73.36;;
37279;Laerm;7458;49.002;8.472;2024-01-10T04:47:39;62.87;39.34;73.39;;
37279;Laerm;7458;49.002;8.472;2024-01-10T04:50:05;63.12;40.13;73.57;;
37279;Laerm;7458;49.002;8.472;2024-01-10T04:52:31;62.94;37.70;73.37;;
37279;Laerm;7458;49.002;8.472;2024-01-10T04:54:58;62.95;38.52;78.32;;
37279;Laerm;7458;49.002;8.472;2024-01-10T04:57:24;62.97;40.03;73.29;;
37279;Laerm;7458;49.002;8.472;2024-01-10T04:59:50;62.82;37.88;73.24;;
37279;Laerm;7458;49.002;8.472;2024-01-10T05:02:16;62.79;37.52;73.17;;
37279;Laerm;7458;49.002;8.472;2024-01-10T05:04:42;62.80;38.21;73.15;;
37279;Laerm;7458;49.002;8.472;2024-01-10T05:07:09;62.85;40.80;73.20;;
37279;Laerm;7458;49.002;8.472;2024-01-10T05:09:36;62.86;38.37;73.31;;
37279;Laerm;7458;49.002;8.472;2024-01-10T05:12:02;62.80;39.92;73.39;;
37279;Laerm;7458;49.002;8.472;2024-01-10T05:14:28;63.85;39.58;78.76;;
37279;Laerm;7458;49.002;8.472;2024-01-10T05:16:54;62.83;39.70;73.37;;
37279;Laerm;7458;49.002;8.472;2024-01-10T05:19:20;63.04;39.92;73.87;;
37279;Laerm;7458;49.002;8.472;2024-01-10T05:21:47;63.13;40.33;73.51;;
37279;Laerm;7458;49.002;8.472;2024-01-10T05:24:13;63.15;41.82;73.26;;
37279;Laerm;7458;49.002;8.472;2024-01-10T05:26:39;63.00;40.03;73.47;;
37279;Laerm;7458;49.002;8.472;2024-01-10T05:29:05;63.10;40.03;74.01;;
37279;Laerm;7458;49.002;8.472;2024-01-10T05:31:31;63.02;41.22;73.61;;
37279;Laerm;7458;49.002;8.472;2024-01-10T05:33:57;62.80;41.46;73.39;;
37279;Laerm;7458;49.002;8.472;2024-01-10T05:36:23;62.92;39.58;73.50;;
37279;Laerm;7458;49.002;8.472;2024-01-10T05:38:50;63.02;39.58;73.60;;
37279;Laerm;7458;49.002;8.472;2024-01-10T05:41:16;62.93;41.26;73.54;;
37279;Laerm;7458;49.002;8.472;2024-01-10T05:43:42;63.13;41.14;73.67;;
37279;Laerm;7458;49.002;8.472;2024-01-10T05:46:09;63.68;39.92;73.52;;
37279;Laerm;7458;49.002;8.472;2024-01-10T05:48:36;63.09;41.14;73.65;;
37279;Laerm;7458;49.002;8.472;2024-01-10T05:51:03;63.39;42.41;73.78;;
37279;Laerm;7458;49.002;8.472;2024-01-10T05:53:29;62.95;40.33;73.60;;
37279;Laerm;7458;49.002;8.472;2024-01-10T05:55:55;63.01;40.43;73.52;;
37279;Laerm;7458;49.002;8.472;2024-01-10T05:58:21;62.98;40.98;73.33;;
37279;Laerm;7458;49.002;8.472;2024-01-10T06:00:47;62.89;41.06;73.71;;
37279;Laerm;7458;49.002;8.472;2024-01-10T06:03:13;64.74;40.98;84.34;;
37279;Laerm;7458;49.002;8.472;2024-01-10T06:05:40;65.94;42.29;73.66;;
37279;Laerm;7458;49.002;8.472;2024-01-10T06:08:06;63.28;41.53;73.22;;
37279;Laerm;7458;49.002;8.472;2024-01-10T06:10:32;63.96;40.23;76.51;;
37279;Laerm;7458;49.002;8.472;2024-01-10T06:12:58;63.09;40.53;73.80;;
37279;Laerm;7458;49.002;8.472;2024-01-10T06:15:25;63.67;41.53;74.55;;
37279;Laerm;7458;49.002;8.472;2024-01-10T06:17:51;62.86;42.03;73.69;;
37279;Laerm;7458;49.002;8.472;2024-01-10T06:20:17;63.20;41.06;73.50;;
37279;Laerm;7458;49.002;8.472;2024-01-10T06:22:44;63.32;41.89;75.09;;
37279;Laerm;7458;49.002;8.472;2024-01-10T06:25:12;63.47;41.38;76.78;;
37279;Laerm;7458;49.002;8.472;2024-01-10T06:27:38;63.94;42.76;76.41;;
37279;Laerm;7458;49.002;8.472;2024-01-10T06:30:05;63.94;40.43;75.16;;
37279;Laerm;7458;49.002;8.472;2024-01-10T06:32:33;63.66;43.29;75.65;;
37279;Laerm;7458;49.002;8.472;2024-01-10T06:34:59;63.93;41.61;73.59;;
37279;Laerm;7458;49.002;8.472;2024-01-10T06:37:27;63.39;43.54;74.04;;
37279;Laerm;7458;49.002;8.472;2024-01-10T06:39:53;64.10;42.16;74.23;;
37279;Laerm;7458;49.002;8.472;2024-01-10T06:42:20;63.51;43.19;73.31;;
37279;Laerm;7458;49.002;8.472;2024-01-10T06:44:46;64.58;41.96;78.77;;
37279;Laerm;7458;49.002;8.472;2024-01-10T06:47:12;64.09;43.90;76.97;;
37279;Laerm;7458;49.002;8.472;2024-01-10T06:49:40;63.55;41.53;74.18;;
37279;Laerm;7458;49.002;8.472;2024-01-10T06:52:06;63.89;42.09;76.93;;
37279;Laerm;7458;49.002;8.472;2024-01-10T06:54:33;64.07;44.47;77.50;;
37279;Laerm;7458;49.002;8.472;2024-01-10T06:57:01;63.14;42.98;73.40;;
37279;Laerm;7458;49.002;8.472;2024-01-10T06:59:27;63.68;43.34;74.26;;
37279;Laerm;7458;49.002;8.472;2024-01-10T07:01:53;63.70;42.93;74.93;;
37279;Laerm;7458;49.002;8.472;2024-01-10T07:04:22;63.73;42.41;76.94;;
37279;Laerm;7458;49.002;8.472;2024-01-10T07:06:50;64.06;41.89;75.00;;
37279;Laerm;7458;49.002;8.472;2024-01-10T07:09:16;63.99;42.41;74.57;;
37279;Laerm;7458;49.002;8.472;2024-01-10T07:11:49;63.23;43.04;73.53;;
37279;Laerm;7458;49.002;8.472;2024-01-10T07:14:15;63.75;44.07;74.67;;
37279;Laerm;7458;49.002;8.472;2024-01-10T07:16:42;63.34;42.41;73.72;;
37279;Laerm;7458;49.002;8.472;2024-01-10T07:19:11;63.51;42.65;73.33;;
37279;Laerm;7458;49.002;8.472;2024-01-10T07:21:42;63.22;42.59;73.44;;
37279;Laerm;7458;49.002;8.472;2024-01-10T07:24:09;63.27;41.96;74.81;;
37279;Laerm;7458;49.002;8.472;2024-01-10T07:26:38;63.69;41.30;74.66;;
37279;Laerm;7458;49.002;8.472;2024-01-10T07:29:04;63.86;42.16;75.18;;
37279;Laerm;7458;49.002;8.472;2024-01-10T07:31:34;62.98;41.22;73.56;;
37279;Laerm;7458;49.002;8.472;2024-01-10T07:34:00;63.28;40.03;77.17;;
37279;Laerm;7458;49.002;8.472;2024-01-10T07:36:27;63.40;41.89;74.69;;
37279;Laerm;7458;49.002;8.472;2024-01-10T07:38:53;63.77;43.54;73.46;;
37279;Laerm;7458;49.002;8.472;2024-01-10T07:41:19;63.85;42.82;73.51;;
37279;Laerm;7458;49.002;8.472;2024-01-10T07:43:46;64.04;41.48;77.19;;
37279;Laerm;7458;49.002;8.472;2024-01-10T07:46:12;63.77;42.65;75.83;;
37279;Laerm;7458;49.002;8.472;2024-01-10T07:48:38;64.40;43.44;74.55;;
37279;Laerm;7458;49.002;8.472;2024-01-10T07:51:04;63.62;41.53;73.71;;
37279;Laerm;7458;49.002;8.472;2024-01-10T07:53:31;64.35;42.03;77.24;;
37279;Laerm;7458;49.002;8.472;2024-01-10T07:55:57;62.91;42.03;73.23;;
37279;Laerm;7458;49.002;8.472;2024-01-10T07:58:23;63.86;43.29;75.39;;
37279;Laerm;7458;49.002;8.472;2024-01-10T08:00:49;63.93;42.41;76.00;;
37279;Laerm;7458;49.002;8.472;2024-01-10T08:03:17;63.10;41.82;73.72;;
37279;Laerm;7458;49.002;8.472;2024-01-10T08:05:42;63.63;42.22;73.84;;
37279;Laerm;7458;49.002;8.472;2024-01-10T08:08:09;63.21;41.22;76.67;;
37279;Laerm;7458;49.002;8.472;2024-01-10T08:10:35;63.40;40.89;73.80;;
37279;Laerm;7458;49.002;8.472;2024-01-10T08:13:01;64.16;42.03;73.83;;
37279;Laerm;7458;49.002;8.472;2024-01-10T08:15:27;63.53;40.98;73.43;;
37279;Laerm;7458;49.002;8.472;2024-01-10T08:17:56;63.77;40.33;74.80;;
37279;Laerm;7458;49.002;8.472;2024-01-10T08:20:22;63.86;41.53;73.64;;
37279;Laerm;7458;49.002;8.472;2024-01-10T08:22:48;63.71;42.65;73.45;;
37279;Laerm;7458;49.002;8.472;2024-01-10T08:25:14;63.31;40.96;73.98;;
37279;Laerm;7458;49.002;8.472;2024-01-10T08:27:41;64.87;40.89;80.64;;
37279;Laerm;7458;49.002;8.472;2024-01-10T08:30:08;64.34;41.96;74.29;;
37279;Laerm;7458;49.002;8.472;2024-01-10T08:32:36;62.72;41.53;74.50;;
37279;Laerm;7458;49.002;8.472;2024-01-10T08:35:03;63.04;40.43;75.11;;
37279;Laerm;7458;49.002;8.472;2024-01-10T08:37:30;62.75;40.71;73.76;;
37279;Laerm;7458;49.002;8.472;2024-01-10T08:39:57;63.52;42.71;74.15;;
37279;Laerm;7458;49.002;8.472;2024-01-10T08:42:23;62.76;41.06;73.10;;
37279;Laerm;7458;49.002;8.472;2024-01-10T08:44:49;63.00;40.53;73.75;;
37279;Laerm;7458;49.002;8.472;2024-01-10T08:47:15;62.47;39.70;73.58;;
37279;Laerm;7458;49.002;8.472;2024-01-10T08:49:41;62.94;42.47;75.51;;
37279;Laerm;7458;49.002;8.472;2024-01-10T08:52:08;62.65;39.81;73.43;;
37279;Laerm;7458;49.002;8.472;2024-01-10T08:54:34;62.91;41.14;73.74;;
37279;Laerm;7458;49.002;8.472;2024-01-10T08:57:00;62.92;42.41;73.72;;
37279;Laerm;7458;49.002;8.472;2024-01-10T08:59:26;62.39;41.75;73.33;;
37279;Laerm;7458;49.002;8.472;2024-01-10T09:01:53;63.01;41.38;73.32;;
37279;Laerm;7458;49.002;8.472;2024-01-10T09:04:20;68.14;42.16;84.81;;
37279;Laerm;7458;49.002;8.472;2024-01-10T09:06:46;63.36;43.58;73.59;;
37279;Laerm;7458;49.002;8.472;2024-01-10T09:09:12;64.56;41.53;82.21;;
37279;Laerm;7458;49.002;8.472;2024-01-10T09:11:39;62.73;41.22;73.62;;
37279;Laerm;7458;49.002;8.472;2024-01-10T09:14:05;62.82;43.09;73.63;;
37279;Laerm;7458;49.002;8.472;2024-01-10T09:16:31;62.62;41.53;73.70;;
37279;Laerm;7458;49.002;8.472;2024-01-10T09:18:57;62.72;40.62;73.40;;
37279;Laerm;7458;49.002;8.472;2024-01-10T09:21:25;62.49;41.68;73.15;;
37279;Laerm;7458;49.002;8.472;2024-01-10T09:23:52;63.49;42.16;82.92;;
37279;Laerm;7458;49.002;8.472;2024-01-10T09:26:18;64.65;43.68;75.30;;
37279;Laerm;7458;49.002;8.472;2024-01-10T09:28:45;62.63;39.58;73.37;;
37279;Laerm;7458;49.002;8.472;2024-01-10T09:31:11;62.11;40.89;73.73;;
37279;Laerm;7458;49.002;8.472;2024-01-10T09:33:37;64.28;42.59;78.74;;
37279;Laerm;7458;49.002;8.472;2024-01-10T09:36:03;63.85;41.46;81.20;;
37279;Laerm;7458;49.002;8.472;2024-01-10T09:38:29;61.98;40.62;76.92;;
37279;Laerm;7458;49.002;8.472;2024-01-10T09:40:59;61.77;41.38;73.28;;
37279;Laerm;7458;49.002;8.472;2024-01-10T09:43:30;62.07;40.53;73.57;;
37279;Laerm;7458;49.002;8.472;2024-01-10T09:45:58;62.45;39.46;74.31;;
37279;Laerm;7458;49.002;8.472;2024-01-10T09:48:26;62.78;40.43;73.53;;
37279;Laerm;7458;49.002;8.472;2024-01-10T09:50:52;62.84;42.29;74.79;;
37279;Laerm;7458;49.002;8.472;2024-01-10T09:53:23;63.46;40.89;78.74;;
37279;Laerm;7458;49.002;8.472;2024-01-10T09:55:50;62.42;40.89;74.08;;
37279;Laerm;7458;49.002;8.472;2024-01-10T09:58:16;65.87;42.22;92.02;;
37279;Laerm;7458;49.002;8.472;2024-01-10T10:00:43;63.81;39.92;82.23;;
37279;Laerm;7458;49.002;8.472;2024-01-10T10:03:10;62.04;41.06;73.86;;
37279;Laerm;7458;49.002;8.472;2024-01-10T10:05:41;62.20;40.71;73.88;;
37279;Laerm;7458;49.002;8.472;2024-01-10T10:08:09;61.32;41.55;73.76;;
37279;Laerm;7458;49.002;8.472;2024-01-10T10:10:37;63.76;42.98;78.22;;
37279;Laerm;7458;49.002;8.472;2024-01-10T10:13:09;61.41;39.70;72.99;;
37279;Laerm;7458;49.002;8.472;2024-01-10T10:15:37;60.88;41.53;79.24;;
37279;Laerm;7458;49.002;8.472;2024-01-10T10:18:03;65.54;39.92;82.96;;
37279;Laerm;7458;49.002;8.472;2024-01-10T10:20:31;60.56;40.43;72.54;;
37279;Laerm;7458;49.002;8.472;2024-01-10T10:23:09;59.94;38.99;72.27;;
37279;Laerm;7458;49.002;8.472;2024-01-10T10:25:45;60.30;41.89;73.88;;
37279;Laerm;7458;49.002;8.472;2024-01-10T10:28:11;59.85;40.33;72.28;;
37279;Laerm;7458;49.002;8.472;2024-01-10T10:30:38;62.73;41.30;76.13;;
37279;Laerm;7458;49.002;8.472;2024-01-10T10:33:05;60.82;39.70;73.49;;
37279;Laerm;7458;49.002;8.472;2024-01-10T10:35:33;61.78;41.89;74.56;;
37279;Laerm;7458;49.002;8.472;2024-01-10T10:38:00;62.33;40.33;74.53;;
37279;Laerm;7458;49.002;8.472;2024-01-10T10:40:26;61.46;39.70;72.85;;
37279;Laerm;7458;49.002;8.472;2024-01-10T10:42:56;65.65;40.13;94.38;;
37279;Laerm;7458;49.002;8.472;2024-01-10T10:45:23;60.75;40.80;78.00;;
37279;Laerm;7458;49.002;8.472;2024-01-10T10:48:00;60.99;41.82;81.79;;
37279;Laerm;7458;49.002;8.472;2024-01-10T10:50:33;59.81;39.58;71.50;;
37279;Laerm;7458;49.002;8.472;2024-01-10T10:53:02;63.63;42.35;83.57;;
37279;Laerm;7458;49.002;8.472;2024-01-10T10:55:29;60.89;39.46;72.22;;
37279;Laerm;7458;49.002;8.472;2024-01-10T10:57:56;62.60;42.41;80.44;;
37279;Laerm;7458;49.002;8.472;2024-01-10T11:00:24;61.40;42.22;80.30;;
37279;Laerm;7458;49.002;8.472;2024-01-10T11:02:54;60.63;41.82;82.36;;
37279;Laerm;7458;49.002;8.472;2024-01-10T11:05:21;59.95;39.92;71.51;;
37279;Laerm;7458;49.002;8.472;2024-01-10T11:07:48;59.95;40.62;74.33;;
37279;Laerm;7458;49.002;8.472;2024-01-10T11:10:25;58.92;41.22;71.89;;
37279;Laerm;7458;49.002;8.472;2024-01-10T11:21:40;60.25;40.53;72.68;;
37279;Laerm;7458;49.002;8.472;2024-01-10T11:24:10;61.37;40.03;76.71;;
37279;Laerm;7458;49.002;8.472;2024-01-10T11:26:38;59.53;39.35;75.93;;
37279;Laerm;7458;49.002;8.472;2024-01-10T11:29:07;59.73;41.46;78.40;;
37279;Laerm;7458;49.002;8.472;2024-01-10T11:31:34;61.86;41.14;71.65;;
37279;Laerm;7458;49.002;8.472;2024-01-10T11:34:01;60.45;40.43;72.87;;
37279;Laerm;7458;49.002;8.472;2024-01-10T11:36:31;59.93;39.81;71.71;;
37279;Laerm;7458;49.002;8.472;2024-01-10T11:39:05;61.60;41.82;81.93;;
37279;Laerm;7458;49.002;8.472;2024-01-10T11:41:34;61.27;40.03;80.96;;
37279;Laerm;7458;49.002;8.472;2024-01-10T11:46:42;60.69;41.06;72.25;;
37279;Laerm;7458;49.002;8.472;2024-01-10T11:49:13;60.10;35.94;72.08;;
37279;Laerm;7458;49.002;8.472;2024-01-10T11:51:49;60.79;38.95;73.98;;
37279;Laerm;7458;49.002;8.472;2024-01-10T11:57:20;61.37;42.47;74.74;;
37279;Laerm;7458;49.002;8.472;2024-01-10T11:59:56;60.25;40.43;72.01;;
37279;Laerm;7458;49.002;8.472;2024-01-10T12:02:25;60.61;40.98;75.14;;
37279;Laerm;7458;49.002;8.472;2024-01-10T12:04:52;60.53;40.98;72.25;;
37279;Laerm;7458;49.002;8.472;2024-01-10T12:07:19;60.35;41.30;72.15;;
37279;Laerm;7458;49.002;8.472;2024-01-10T12:09:49;61.35;42.65;72.30;;
37279;Laerm;7458;49.002;8.472;2024-01-10T12:12:15;60.77;40.62;72.24;;
37279;Laerm;7458;49.002;8.472;2024-01-10T12:14:42;61.13;41.46;79.59;;
37279;Laerm;7458;49.002;8.472;2024-01-10T12:17:12;62.29;40.80;87.52;;
37279;Laerm;7458;49.002;8.472;2024-01-10T12:19:38;67.19;40.53;83.43;;
37279;Laerm;7458;49.002;8.472;2024-01-10T12:22:05;61.08;40.23;72.32;;
37279;Laerm;7458;49.002;8.472;2024-01-10T12:24:31;61.19;41.89;75.95;;
37279;Laerm;7458;49.002;8.472;2024-01-10T12:26:58;61.15;39.58;72.45;;
37279;Laerm;7458;49.002;8.472;2024-01-10T12:29:24;60.19;40.03;72.28;;
37279;Laerm;7458;49.002;8.472;2024-01-10T12:31:51;60.60;39.58;72.36;;
37279;Laerm;7458;49.002;8.472;2024-01-10T12:34:17;61.03;41.46;73.75;;
37279;Laerm;7458;49.002;8.472;2024-01-10T12:36:44;60.85;40.13;72.11;;
37279;Laerm;7458;49.002;8.472;2024-01-10T12:39:11;61.40;40.80;71.87;;
37279;Laerm;7458;49.002;8.472;2024-01-10T12:41:37;61.57;41.22;76.58;;
37279;Laerm;7458;49.002;8.472;2024-01-10T12:44:04;61.42;41.61;73.19;;
37279;Laerm;7458;49.002;8.472;2024-01-10T12:46:32;60.68;39.57;72.20;;
37279;Laerm;7458;49.002;8.472;2024-01-10T12:49:06;60.12;39.58;72.36;;
37279;Laerm;7458;49.002;8.472;2024-01-10T12:51:34;61.92;43.44;72.14;;
37279;Laerm;7458;49.002;8.472;2024-01-10T12:54:02;61.59;41.22;73.92;;
37279;Laerm;7458;49.002;8.472;2024-01-10T12:56:30;61.81;41.14;73.66;;
37279;Laerm;7458;49.002;8.472;2024-01-10T12:58:56;61.20;40.53;73.23;;
37279;Laerm;7458;49.002;8.472;2024-01-10T13:01:25;62.15;42.53;80.34;;
37279;Laerm;7458;49.002;8.472;2024-01-10T13:03:52;60.41;39.58;72.33;;
37279;Laerm;7458;49.002;8.472;2024-01-10T13:06:19;60.60;40.03;72.28;;
37279;Laerm;7458;49.002;8.472;2024-01-10T13:08:48;60.80;39.70;72.54;;
37279;Laerm;7458;49.002;8.472;2024-01-10T13:11:15;60.61;41.22;72.18;;
37279;Laerm;7458;49.002;8.472;2024-01-10T13:13:42;60.89;41.61;72.16;;
37279;Laerm;7458;49.002;8.472;2024-01-10T13:16:10;61.83;42.47;73.26;;
37279;Laerm;7458;49.002;8.472;2024-01-10T13:18:38;60.43;40.80;72.22;;
37279;Laerm;7458;49.002;8.472;2024-01-10T13:21:05;61.12;42.03;72.25;;
37279;Laerm;7458;49.002;8.472;2024-01-10T13:23:32;61.63;40.23;75.23;;
37279;Laerm;7458;49.002;8.472;2024-01-10T13:25:59;61.20;42.09;72.00;;
37279;Laerm;7458;49.002;8.472;2024-01-10T13:28:25;60.80;42.24;72.21;;
37279;Laerm;7458;49.002;8.472;2024-01-10T13:30:51;61.25;41.75;72.07;;
37279;Laerm;7458;49.002;8.472;2024-01-10T13:33:18;61.70;42.09;72.32;;
37279;Laerm;7458;49.002;8.472;2024-01-10T13:35:45;60.95;40.53;76.24;;
37279;Laerm;7458;49.002;8.472;2024-01-10T13:38:11;65.66;42.65;87.22;;
37279;Laerm;7458;49.002;8.472;2024-01-10T13:40:37;63.39;42.29;77.96;;
37279;Laerm;7458;49.002;8.472;2024-01-10T13:43:04;61.83;41.75;76.34;;
37279;Laerm;7458;49.002;8.472;2024-01-10T13:45:30;60.95;40.53;72.77;;
37279;Laerm;7458;49.002;8.472;2024-01-10T13:47:57;61.12;43.04;71.96;;
37279;Laerm;7458;49.002;8.472;2024-01-10T13:50:23;61.44;42.06;72.33;;
37279;Laerm;7458;49.002;8.472;2024-01-10T13:52:51;60.63;40.03;73.10;;
37279;Laerm;7458;49.002;8.472;2024-01-10T13:55:17;61.40;42.76;80.34;;
37279;Laerm;7458;49.002;8.472;2024-01-10T13:57:43;60.64;42.29;71.97;;
37279;Laerm;7458;49.002;8.472;2024-01-10T14:00:11;60.89;41.68;72.18;;
37279;Laerm;7458;49.002;8.472;2024-01-10T14:02:43;60.50;41.75;71.97;;
37279;Laerm;7458;49.002;8.472;2024-01-10T14:05:09;60.88;42.59;72.10;;
37279;Laerm;7458;49.002;8.472;2024-01-10T14:07:36;60.14;39.34;72.03;;
37279;Laerm;7458;49.002;8.472;2024-01-10T14:10:02;61.11;41.33;72.78;;